KCKI

Details ICAO KCKI
Name WILLIAMSBURG RGNL
Region United States
Timezone America/New_York (UTC-4.0)
Plans Departing 1
Arriving 3
Stats Elevation 67 ft / 20 m (AMSL)
Location 33.717225° -79.856979°
Runways 1
Magnetic Variation 8.166° W
Sunrise 2018-05-22 10:15:36 UTC / 2018-05-22 06:15:36 Local
Sunset 2018-05-23 00:19:29 UTC / 2018-05-22 20:19:29 Local
Advertisement - Login to hide

Runways

ID Width Length Bearing (true) Bearing (mag) Surface Threshold Offset Overrun Length
14 75 ft / 23 m 5,002 ft / 1,525 m 132.34° 140.51° Asphalt 0 ft / 0 m 0 ft / 0 m
32 75 ft / 23 m 5,002 ft / 1,525 m 312.35° 320.52° Asphalt 0 ft / 0 m 0 ft / 0 m

Map

Weather


0- 5 10 15 20 25 30 35+ Temperature / ° C

Clouds and Precipitation
Forecast for 2018-05-23 06:00 UTC. Updated 35 minutes ago

Ground ~20,000 ft ~40,000 ft Winds

METAR

KCKI 230335Z AUTO 00000KT 10SM CLR 22/21 A3011 RMK AO2

TAF

Not found

Frequencies

Unicom 122.70 MHz CTAF/UNICOM
Approach 127.40 MHz MYRTLE BEACH APP/DEP
Warning: Do not use this data for real-world aviation or navigation. No guarantee of current accuracy is given.